Time;durP1;ratioP1;P1;durP2;ratioP2;P2;SDS_P1;SDS_P2;PMS_P1;PMS_P2;Temp;Humidity;BMP_temperature;BMP_pressure;BME280_temperature;BME280_humidity;BME280_pressure;Samples;Min_cycle;Max_cycle;Signal;HPM_P1;HPM_P2
2023/09/11 00:01:21;;;;;;;15.07;12.47;;;16.90;99.90;16.30;100464;;;;562857;251;24128;-76
2023/09/11 00:03:47;;;;;;;16.73;12.67;;;16.90;99.90;16.30;100466;;;;562492;251;24184;-75
2023/09/11 00:06:14;;;;;;;16.40;12.03;;;16.90;99.90;16.20;100478;;;;562829;251;24124;-77
2023/09/11 00:08:42;;;;;;;15.73;12.50;;;16.80;99.90;16.30;100471;;;;564034;250;24178;-76
2023/09/11 00:11:10;;;;;;;14.80;12.40;;;16.90;99.90;16.30;100466;;;;563874;250;24130;-76
2023/09/11 00:13:38;;;;;;;15.17;12.97;;;16.90;99.90;16.30;100469;;;;563531;250;23151;-82
2023/09/11 00:16:06;;;;;;;18.23;12.47;;;16.90;99.90;16.20;100471;;;;563225;250;24111;-83
2023/09/11 00:18:38;;;;;;;15.53;13.87;;;16.80;99.90;16.20;100477;;;;562952;251;24149;-83
2023/09/11 00:21:02;;;;;;;16.20;13.47;;;16.80;99.90;16.20;100464;;;;562694;251;24134;-80
2023/09/11 00:23:29;;;;;;;16.53;13.77;;;16.80;99.90;16.10;100464;;;;562852;251;24151;-81
2023/09/11 00:25:58;;;;;;;19.98;17.75;;;16.60;99.90;16.00;100464;;;;557988;251;35485;-84
2023/09/11 00:28:27;;;;;;;17.50;15.70;;;16.60;99.90;16.00;100470;;;;562754;251;24155;-78
2023/09/11 00:31:02;;;;;;;17.60;14.20;;;16.50;99.90;15.90;100472;;;;562769;251;24119;-82
2023/09/11 00:33:26;;;;;;;15.67;13.07;;;16.50;99.90;15.80;100472;;;;562188;251;24117;-82
2023/09/11 00:35:54;;;;;;;17.87;14.63;;;16.50;99.90;15.80;100473;;;;562704;251;24122;-76
2023/09/11 00:38:22;;;;;;;19.93;14.57;;;16.40;99.90;15.80;100477;;;;562689;251;24146;-76
2023/09/11 00:40:50;;;;;;;17.77;14.47;;;16.40;99.90;15.70;100474;;;;562726;251;24114;-77
2023/09/11 00:43:18;;;;;;;16.87;13.20;;;16.30;99.90;15.70;100468;;;;562581;251;24112;-78
2023/09/11 00:45:48;;;;;;;16.33;14.03;;;16.30;99.90;15.60;100473;;;;562401;251;24116;-77
2023/09/11 00:48:15;;;;;;;20.47;14.30;;;16.20;99.90;15.60;100467;;;;562363;251;24163;-75
2023/09/11 00:50:47;;;;;;;17.17;13.73;;;16.20;99.90;15.50;100467;;;;562515;251;24154;-76
2023/09/11 00:53:12;;;;;;;16.03;14.37;;;16.10;99.90;15.50;100461;;;;562157;251;24102;-79
2023/09/11 00:55:44;;;;;;;19.63;14.07;;;16.10;99.90;15.50;100460;;;;562152;251;24113;-77
2023/09/11 00:58:09;;;;;;;18.80;14.10;;;16.10;99.90;15.50;100466;;;;562119;251;24106;-78
2023/09/11 01:00:38;;;;;;;18.20;13.93;;;16.10;99.90;15.50;100463;;;;562305;251;24147;-77
2023/09/11 01:03:07;;;;;;;17.30;14.07;;;16.10;99.90;15.50;100459;;;;562169;251;24108;-81
2023/09/11 01:05:36;;;;;;;19.53;13.83;;;16.10;99.90;15.40;100463;;;;561970;251;24136;-76
2023/09/11 01:08:04;;;;;;;17.80;13.20;;;16.10;99.90;15.40;100454;;;;562405;251;24138;-78
2023/09/11 01:10:33;;;;;;;16.43;13.00;;;16.00;99.90;15.40;100455;;;;562407;251;24105;-80
2023/09/11 01:13:01;;;;;;;17.83;12.97;;;16.00;99.90;15.40;100452;;;;562279;251;24136;-81
2023/09/11 01:15:29;;;;;;;17.67;13.97;;;16.00;99.90;15.40;100449;;;;562035;251;24123;-79
2023/09/11 01:18:02;;;;;;;17.20;12.07;;;16.00;99.90;15.40;100452;;;;561871;251;24110;-77
2023/09/11 01:20:58;;;;;;;17.67;13.07;;;16.00;99.90;15.30;100451;;;;563099;250;24152;-77
2023/09/11 01:23:34;;;;;;;16.93;13.23;;;16.00;99.90;15.30;100441;;;;563429;250;24131;-76
2023/09/11 01:26:11;;;;;;;13.13;11.70;;;16.00;99.90;15.30;100443;;;;562667;250;24186;-79
2023/09/11 01:29:09;;;;;;;14.43;12.53;;;15.90;99.90;15.30;100440;;;;562592;251;24120;-77
2023/09/11 01:31:41;;;;;;;17.95;16.05;;;16.00;99.90;15.30;100439;;;;558051;251;35547;-76
2023/09/11 01:34:07;;;;;;;15.50;13.90;;;16.00;99.90;15.40;100439;;;;565806;251;24117;-79
2023/09/11 01:36:35;;;;;;;15.03;12.13;;;16.00;99.90;15.30;100441;;;;562930;251;24143;-77
2023/09/11 01:39:08;;;;;;;16.10;12.23;;;16.00;99.90;15.30;100425;;;;562997;251;24128;-77
2023/09/11 01:41:38;;;;;;;18.17;13.07;;;16.00;99.90;15.30;100438;;;;562580;251;24124;-77
2023/09/11 01:44:26;;;;;;;13.73;11.73;;;16.00;99.90;15.30;100431;;;;562451;251;24156;-77
2023/09/11 01:46:49;;;;;;;15.17;12.80;;;16.00;99.90;15.30;100435;;;;562433;251;24109;-76
2023/09/11 01:49:18;;;;;;;16.57;12.60;;;15.90;99.90;15.30;100434;;;;562444;251;24132;-79
2023/09/11 01:51:47;;;;;;;16.27;11.80;;;15.90;99.90;15.30;100428;;;;562384;251;24113;-77
2023/09/11 01:54:16;;;;;;;15.37;11.40;;;15.90;99.90;15.30;100424;;;;562584;251;24109;-76
2023/09/11 01:56:47;;;;;;;16.43;12.50;;;15.90;99.90;15.20;100426;;;;562343;251;24212;-76
2023/09/11 01:59:15;;;;;;;16.97;11.73;;;15.90;99.90;15.20;100424;;;;562385;251;24117;-79
2023/09/11 02:01:46;;;;;;;13.77;12.27;;;15.90;99.90;15.20;100419;;;;562412;251;24131;-76
2023/09/11 02:04:14;;;;;;;16.93;12.07;;;15.90;99.90;15.20;100416;;;;561886;251;24167;-77
2023/09/11 02:06:42;;;;;;;14.63;13.13;;;15.90;99.90;15.20;100421;;;;561996;251;24176;-76
2023/09/11 02:09:13;;;;;;;14.07;11.77;;;15.80;99.90;15.10;100427;;;;562345;251;24109;-76
2023/09/11 02:11:38;;;;;;;19.37;11.77;;;15.80;99.90;15.10;100422;;;;562467;251;24122;-77
2023/09/11 02:14:06;;;;;;;15.33;12.47;;;15.80;99.90;15.10;100429;;;;562401;251;24121;-76
2023/09/11 02:16:34;;;;;;;16.30;13.23;;;15.80;99.90;15.10;100435;;;;562439;251;24101;-76
2023/09/11 02:19:02;;;;;;;20.97;12.80;;;15.80;99.90;15.10;100432;;;;562417;251;24112;-76
2023/09/11 02:21:30;;;;;;;20.63;12.70;;;15.80;99.90;15.10;100429;;;;562406;251;24168;-78
2023/09/11 02:24:01;;;;;;;16.63;13.10;;;15.80;99.90;15.10;100429;;;;562336;251;24101;-76
2023/09/11 02:26:26;;;;;;;20.10;13.37;;;15.80;99.90;15.10;100428;;;;562141;251;24196;-83
2023/09/11 02:28:55;;;;;;;17.13;13.13;;;15.80;99.90;15.10;100430;;;;562401;251;24144;-81
2023/09/11 02:31:21;;;;;;;20.37;13.03;;;15.80;99.90;15.10;100430;;;;563000;250;25220;-79
2023/09/11 02:33:50;;;;;;;17.53;13.23;;;15.70;99.90;15.10;100432;;;;563612;250;24103;-79
2023/09/11 02:36:18;;;;;;;15.47;12.47;;;15.70;99.90;15.10;100428;;;;562970;250;24123;-77
2023/09/11 02:38:46;;;;;;;15.87;12.97;;;15.80;99.90;15.10;100427;;;;563109;250;25191;-76
2023/09/11 02:41:14;;;;;;;18.50;12.57;;;15.70;99.90;15.00;100418;;;;562925;251;24119;-78
2023/09/11 02:43:42;;;;;;;18.83;12.97;;;15.70;99.90;15.00;100425;;;;562813;251;24120;-76
2023/09/11 02:46:10;;;;;;;15.77;13.47;;;15.70;99.90;15.00;100420;;;;562869;251;24101;-77
2023/09/11 02:48:44;;;;;;;14.33;12.80;;;15.70;99.90;15.00;100420;;;;562505;251;24218;-75
2023/09/11 02:51:12;;;;;;;15.10;12.50;;;15.70;99.90;15.00;100413;;;;562666;251;24106;-80
2023/09/11 02:53:45;;;;;;;15.73;12.67;;;15.70;99.90;15.00;100414;;;;562709;251;24124;-76
2023/09/11 02:56:10;;;;;;;17.53;12.43;;;15.60;99.90;15.00;100415;;;;562470;251;24109;-76
2023/09/11 02:58:38;;;;;;;14.20;12.70;;;15.60;99.90;15.00;100419;;;;562648;251;24113;-78
2023/09/11 03:01:06;;;;;;;14.33;12.63;;;15.60;99.90;14.90;100414;;;;562734;251;24152;-79
2023/09/11 03:03:34;;;;;;;16.70;12.33;;;15.60;99.90;14.90;100418;;;;562686;251;24152;-76
2023/09/11 03:06:05;;;;;;;19.00;13.03;;;15.60;99.90;14.90;100420;;;;562890;251;24120;-76
2023/09/11 03:08:30;;;;;;;14.60;13.10;;;15.60;99.90;14.90;100417;;;;562314;251;24124;-78
2023/09/11 03:11:07;;;;;;;14.10;12.13;;;15.50;99.90;14.80;100411;;;;562360;251;24119;-77
2023/09/11 03:13:39;;;;;;;15.00;11.47;;;15.50;99.90;14.80;100417;;;;562552;251;24119;-80
2023/09/11 03:16:10;;;;;;;15.30;13.17;;;15.40;99.90;14.80;100410;;;;562750;251;24210;-79
2023/09/11 03:18:38;;;;;;;20.90;12.47;;;15.40;99.90;14.80;100411;;;;561829;251;24128;-78
2023/09/11 03:21:07;;;;;;;14.13;12.27;;;15.40;99.90;14.80;100416;;;;567180;251;24175;-76
2023/09/11 03:23:34;;;;;;;15.93;13.97;;;15.40;99.90;14.70;100418;;;;576829;246;24100;-77
2023/09/11 03:26:02;;;;;;;17.00;12.70;;;15.40;99.90;14.70;100412;;;;573871;246;24106;-75
2023/09/11 03:28:30;;;;;;;16.10;12.53;;;15.40;99.90;14.70;100418;;;;562265;251;24167;-75
2023/09/11 03:30:57;;;;;;;18.13;13.13;;;15.40;99.90;14.70;100411;;;;562003;251;24126;-76
2023/09/11 03:33:25;;;;;;;16.80;14.63;;;15.30;99.90;14.70;100414;;;;562274;251;24120;-76
2023/09/11 03:35:53;;;;;;;17.40;13.60;;;15.40;99.90;14.70;100413;;;;562180;251;24128;-75
2023/09/11 03:38:21;;;;;;;15.67;12.73;;;15.30;99.90;14.70;100408;;;;562698;251;24109;-76
2023/09/11 03:40:50;;;;;;;19.87;13.43;;;15.30;99.90;14.70;100408;;;;562320;251;24124;-76
2023/09/11 03:43:17;;;;;;;20.60;13.30;;;15.30;99.90;14.70;100402;;;;563324;250;24136;-76
2023/09/11 03:45:45;;;;;;;15.87;13.50;;;15.30;99.90;14.60;100412;;;;563449;250;24123;-78
2023/09/11 03:48:13;;;;;;;14.70;13.10;;;15.30;99.90;14.60;100409;;;;562811;250;24112;-78
2023/09/11 03:50:42;;;;;;;16.37;12.53;;;15.20;99.90;14.60;100410;;;;562924;250;24151;-78
2023/09/11 03:53:10;;;;;;;17.93;13.47;;;15.30;99.90;14.60;100389;;;;562580;251;24109;-76
2023/09/11 03:55:39;;;;;;;16.37;13.20;;;15.30;99.90;14.60;100398;;;;562756;251;24116;-75
2023/09/11 03:58:07;;;;;;;20.90;14.40;;;15.20;99.90;14.60;100393;;;;562642;251;24152;-77
2023/09/11 04:00:35;;;;;;;16.53;13.67;;;15.30;99.90;14.60;100388;;;;562925;251;24112;-77
2023/09/11 04:03:07;;;;;;;17.77;13.13;;;15.30;99.90;14.60;100389;;;;562715;251;24127;-76
2023/09/11 04:05:31;;;;;;;14.70;12.87;;;15.20;99.90;14.60;100392;;;;562146;251;24125;-80
2023/09/11 04:07:59;;;;;;;22.03;13.63;;;15.30;99.90;14.60;100394;;;;562785;251;24121;-76
2023/09/11 04:10:28;;;;;;;17.87;13.57;;;15.30;99.90;14.60;100390;;;;562811;251;24113;-75
2023/09/11 04:12:55;;;;;;;16.77;12.70;;;15.30;99.90;14.70;100387;;;;562619;251;24133;-76
2023/09/11 04:15:27;;;;;;;16.63;13.03;;;15.30;99.90;14.70;100380;;;;562508;251;24096;-74
2023/09/11 04:17:54;;;;;;;19.20;14.00;;;15.30;99.90;14.70;100391;;;;562163;251;24123;-75
2023/09/11 04:20:19;;;;;;;20.53;12.73;;;15.30;99.90;14.70;100387;;;;562055;251;24134;-76
2023/09/11 04:22:47;;;;;;;20.90;13.57;;;15.30;99.90;14.70;100384;;;;562059;251;24120;-76
2023/09/11 04:25:18;;;;;;;16.10;14.40;;;15.30;99.90;14.70;100384;;;;562301;251;24134;-76
2023/09/11 04:27:43;;;;;;;15.73;12.33;;;15.30;99.90;14.80;100384;;;;562216;251;24112;-75
2023/09/11 04:30:11;;;;;;;15.40;12.13;;;15.40;99.90;14.80;100390;;;;562452;251;24181;-76
2023/09/11 04:32:39;;;;;;;17.80;12.80;;;15.40;99.90;14.80;100384;;;;562677;251;24131;-77
2023/09/11 04:35:07;;;;;;;17.07;13.00;;;15.50;99.90;14.90;100388;;;;562393;251;24131;-78
2023/09/11 04:37:35;;;;;;;17.40;12.50;;;15.50;99.90;15.00;100382;;;;562554;251;24101;-78
2023/09/11 04:40:05;;;;;;;22.20;13.80;;;15.60;99.90;15.00;100381;;;;562823;251;24110;-75
2023/09/11 04:42:30;;;;;;;19.30;13.13;;;15.60;99.90;15.10;100389;;;;562528;251;24130;-78
2023/09/11 04:44:59;;;;;;;19.97;12.77;;;15.70;99.90;15.20;100375;;;;562356;251;24163;-77
2023/09/11 04:47:31;;;;;;;17.07;13.70;;;15.80;99.90;15.20;100381;;;;562214;251;24154;-78
2023/09/11 04:49:56;;;;;;;23.03;12.90;;;15.80;99.90;15.30;100374;;;;561946;251;24129;-75
2023/09/11 04:52:26;;;;;;;18.50;12.67;;;15.90;99.90;15.40;100373;;;;562072;251;24129;-76
2023/09/11 04:54:51;;;;;;;18.00;12.03;;;16.00;99.90;15.50;100376;;;;562965;250;24123;-77
2023/09/11 04:57:20;;;;;;;14.23;12.33;;;16.10;99.90;15.60;100379;;;;563720;250;24154;-81
2023/09/11 04:59:47;;;;;;;16.03;12.67;;;16.10;99.90;15.70;100382;;;;563076;250;24119;-79
2023/09/11 05:02:19;;;;;;;15.77;12.87;;;16.30;99.90;15.80;100377;;;;563119;250;24109;-77
2023/09/11 05:04:46;;;;;;;13.77;12.07;;;16.40;99.90;15.90;100380;;;;562421;251;24112;-77
2023/09/11 05:07:11;;;;;;;17.60;12.60;;;16.50;99.90;16.00;100380;;;;562840;251;24119;-78
2023/09/11 05:09:42;;;;;;;15.30;13.57;;;16.60;99.90;16.20;100383;;;;562690;251;24156;-77
2023/09/11 05:12:08;;;;;;;15.17;11.90;;;16.70;99.90;16.30;100388;;;;562492;251;24133;-76
2023/09/11 05:14:36;;;;;;;20.37;13.50;;;17.40;99.90;16.90;100384;;;;562695;251;24117;-76
2023/09/11 05:17:04;;;;;;;16.50;13.20;;;17.40;99.90;18.20;100390;;;;562752;251;24103;-76
2023/09/11 05:19:32;;;;;;;18.17;12.40;;;18.50;99.90;19.60;100388;;;;562661;251;24094;-76
2023/09/11 05:21:59;;;;;;;14.90;13.00;;;19.80;99.90;20.90;100387;;;;562740;251;24135;-77
2023/09/11 05:24:27;;;;;;;20.13;12.60;;;21.10;99.90;22.20;100383;;;;562716;251;24127;-77
2023/09/11 05:26:55;;;;;;;15.63;12.53;;;22.50;99.90;23.30;100383;;;;562692;251;24105;-77
2023/09/11 05:29:27;;;;;;;13.53;11.50;;;23.60;99.90;24.40;100384;;;;562660;251;24111;-77
2023/09/11 05:31:51;;;;;;;16.23;11.53;;;24.70;99.90;25.40;100380;;;;562175;251;23134;-76
2023/09/11 05:34:19;;;;;;;14.97;11.30;;;25.80;99.90;26.40;100389;;;;562261;251;23159;-76
2023/09/11 05:36:47;;;;;;;15.40;10.33;;;26.70;99.90;27.10;100380;;;;562467;251;24211;-77
2023/09/11 05:39:16;;;;;;;11.97;10.80;;;28.30;99.90;28.00;100390;;;;562416;251;24128;-76
2023/09/11 05:41:47;;;;;;;15.60;12.25;;;28.30;99.90;28.80;100387;;;;562213;251;23135;-76
2023/09/11 05:44:14;;;;;;;15.27;11.35;;;29.10;99.90;29.50;100385;;;;562390;251;23132;-78
2023/09/11 05:46:39;;;;;;;12.30;10.93;;;29.80;99.90;30.30;100387;;;;562320;251;23170;-78
2023/09/11 05:49:07;;;;;;;14.05;11.35;;;30.60;99.90;31.00;100391;;;;562503;251;23107;-77
2023/09/11 05:51:35;;;;;;;12.60;11.27;;;31.30;98.20;31.60;100382;;;;562455;251;23131;-78
2023/09/11 05:54:03;;;;;;;12.25;10.80;;;31.80;95.50;32.20;100395;;;;562540;251;23114;-77
2023/09/11 05:59:34;;;;;;;12.07;10.50;;;33.10;91.30;33.70;100396;;;;568929;251;23153;-81
2023/09/11 06:02:02;;;;;;;11.50;10.35;;;33.90;87.20;34.30;100404;;;;562431;251;24154;-77
2023/09/11 06:04:30;;;;;;;12.75;11.05;;;34.50;83.20;34.80;100402;;;;562201;251;23180;-78
2023/09/11 06:06:57;;;;;;;15.45;11.18;;;35.00;79.40;35.30;100401;;;;558197;250;35441;-77
2023/09/11 06:09:26;;;;;;;15.05;10.43;;;35.50;75.40;35.80;100406;;;;563343;250;24163;-79
2023/09/11 06:11:53;;;;;;;16.17;11.18;;;36.10;73.30;36.60;100406;;;;558645;250;46438;-84
2023/09/11 06:14:21;;;;;;;20.08;10.63;;;36.80;69.60;37.00;100410;;;;563894;250;23124;-83
2023/09/11 06:16:53;;;;;;;11.30;10.25;;;37.30;67.30;37.60;100409;;;;562852;251;23140;-81
2023/09/11 06:19:21;;;;;;;14.00;10.65;;;37.70;65.60;38.00;100409;;;;562132;251;23137;-83
2023/09/11 06:21:48;;;;;;;13.98;11.05;;;38.10;63.40;38.40;100412;;;;562532;249;23149;-77
2023/09/11 06:24:14;;;;;;;16.02;11.00;;;38.60;61.80;39.00;100417;;;;562600;251;23134;-79
2023/09/11 06:26:41;;;;;;;17.92;10.85;;;39.20;60.30;39.50;100416;;;;562863;251;24203;-79
2023/09/11 06:29:13;;;;;;;10.52;9.52;;;40.10;58.50;40.00;100418;;;;562504;251;23135;-82
2023/09/11 06:31:38;;;;;;;13.05;11.70;;;40.00;57.80;40.40;100423;;;;562621;250;24168;-80
2023/09/11 06:34:06;;;;;;;17.17;10.18;;;40.50;56.60;40.90;100417;;;;581956;245;23092;-78
2023/09/11 06:36:33;;;;;;;12.90;10.57;;;41.00;55.50;41.30;100423;;;;573018;246;23099;-83
2023/09/11 06:39:02;;;;;;;15.70;10.80;;;41.50;54.50;41.70;100425;;;;569431;246;45738;-78
2023/09/11 06:41:33;;;;;;;13.50;10.13;;;41.80;53.10;42.10;100424;;;;563643;251;23140;-79
2023/09/11 06:43:57;;;;;;;18.60;10.95;;;42.20;53.00;42.50;100428;;;;582192;246;25163;-78
2023/09/11 06:46:25;;;;;;;10.15;9.20;;;42.60;51.70;43.00;100423;;;;573075;246;23115;-77
2023/09/11 06:48:53;;;;;;;10.30;9.30;;;43.10;50.90;43.40;100429;;;;562931;251;23113;-78
2023/09/11 06:51:21;;;;;;;11.70;9.45;;;43.40;50.10;43.80;100434;;;;573075;246;23222;-77
2023/09/11 06:53:49;;;;;;;11.32;8.88;;;43.80;49.50;44.20;100432;;;;572780;246;23103;-79
2023/09/11 06:56:17;;;;;;;12.13;9.52;;;44.20;49.10;44.50;100437;;;;562694;251;23173;-78
2023/09/11 06:58:45;;;;;;;9.80;8.80;;;44.90;47.80;45.00;100442;;;;572656;246;23109;-78
2023/09/11 07:01:16;;;;;;;10.98;8.35;;;44.90;47.70;45.20;100441;;;;562077;251;24157;-80
2023/09/11 07:03:41;;;;;;;12.60;8.80;;;45.20;47.10;45.60;100441;;;;570840;250;23177;-79
2023/09/11 07:06:09;;;;;;;13.52;8.82;;;45.60;46.60;45.80;100440;;;;572546;246;23094;-78
2023/09/11 07:08:37;;;;;;;11.40;9.57;;;45.90;46.00;46.00;100440;;;;562107;251;23164;-79
2023/09/11 07:11:05;;;;;;;10.45;9.20;;;46.10;46.60;46.20;100444;;;;572858;246;23098;-78
2023/09/11 07:13:33;;;;;;;13.60;9.23;;;46.20;45.30;46.50;100437;;;;573015;246;23085;-77
2023/09/11 07:16:04;;;;;;;10.20;9.02;;;46.50;45.20;46.90;100446;;;;562764;251;23181;-77
2023/09/11 07:18:29;;;;;;;12.48;8.45;;;46.90;44.50;47.30;100449;;;;573261;246;23109;-77
2023/09/11 07:20:57;;;;;;;11.10;8.73;;;47.30;44.20;47.40;100450;;;;573848;246;23171;-79
2023/09/11 07:23:27;;;;;;;16.70;8.63;;;47.50;43.90;47.70;100443;;;;563039;250;23121;-78
2023/09/11 07:25:56;;;;;;;14.23;8.95;;;47.70;43.40;47.80;100444;;;;563030;250;23182;-79
2023/09/11 07:28:24;;;;;;;11.12;8.38;;;47.90;43.40;48.00;100448;;;;562315;251;23135;-77
2023/09/11 07:30:48;;;;;;;8.85;8.18;;;48.10;42.60;48.20;100447;;;;573365;246;23098;-77
2023/09/11 07:33:19;;;;;;;9.68;8.75;;;48.30;42.20;48.50;100445;;;;574028;246;24107;-77
2023/09/11 07:35:47;;;;;;;11.32;8.68;;;48.60;42.20;48.70;100448;;;;572980;246;23122;-77
2023/09/11 07:38:12;;;;;;;10.88;9.38;;;48.90;42.00;48.90;100439;;;;572620;246;23136;-78
2023/09/11 07:40:43;;;;;;;10.60;7.97;;;49.20;41.80;49.40;100445;;;;572868;246;23168;-78
2023/09/11 07:43:08;;;;;;;9.95;8.07;;;49.60;41.30;49.80;100449;;;;573116;246;23098;-81
2023/09/11 07:45:36;;;;;;;9.25;8.43;;;50.00;40.90;49.90;100446;;;;573657;246;23113;-79
2023/09/11 07:48:07;;;;;;;9.40;8.23;;;50.10;40.10;50.10;100452;;;;581585;246;23096;-79
2023/09/11 07:50:32;;;;;;;9.40;8.00;;;50.30;40.00;50.30;100452;;;;572938;246;23113;-82
2023/09/11 07:53:00;;;;;;;9.13;8.18;;;50.50;40.10;50.50;100455;;;;572748;246;23100;-80
2023/09/11 07:55:28;;;;;;;9.02;8.25;;;50.60;39.70;50.70;100458;;;;572687;246;23112;-80
2023/09/11 07:57:56;;;;;;;8.45;7.55;;;51.00;39.50;51.00;100460;;;;572599;246;23118;-79
2023/09/11 08:00:30;;;;;;;10.00;8.73;;;51.40;38.70;51.10;100451;;;;572433;246;23154;-80
2023/09/11 08:02:53;;;;;;;8.15;7.60;;;51.30;38.60;51.20;100456;;;;572268;246;23178;-87
2023/09/11 08:05:24;;;;;;;8.75;7.90;;;51.40;38.60;51.20;100456;;;;580860;246;23105;-80
2023/09/11 08:07:51;;;;;;;8.68;7.85;;;51.40;38.40;51.00;100455;;;;572474;246;23121;-81
2023/09/11 08:10:18;;;;;;;8.65;7.75;;;51.20;38.60;50.70;100450;;;;572402;246;23101;-79
2023/09/11 08:12:46;;;;;;;9.57;7.87;;;51.20;38.50;50.70;100459;;;;572827;246;23102;-79
2023/09/11 08:15:15;;;;;;;8.02;7.40;;;51.30;39.40;50.90;100452;;;;572845;246;23083;-79
2023/09/11 08:17:43;;;;;;;7.87;7.25;;;51.30;38.60;51.20;100446;;;;572857;246;25202;-78
2023/09/11 08:20:14;;;;;;;11.07;7.28;;;51.60;38.20;51.40;100453;;;;572603;246;23109;-78
2023/09/11 08:22:42;;;;;;;9.27;8.38;;;51.80;38.10;51.50;100454;;;;572467;246;23102;-79
2023/09/11 08:25:11;;;;;;;8.00;7.32;;;51.90;37.60;51.50;100456;;;;580217;246;23101;-79
2023/09/11 08:27:35;;;;;;;8.98;8.38;;;52.00;37.70;51.40;100459;;;;572285;246;23097;-80
2023/09/11 08:30:06;;;;;;;8.38;7.68;;;52.00;37.30;51.20;100456;;;;583347;245;23103;-82
2023/09/11 08:32:33;;;;;;;10.55;8.25;;;51.90;37.50;51.10;100459;;;;573586;246;23092;-81
2023/09/11 08:35:01;;;;;;;8.45;7.57;;;52.00;37.70;51.10;100459;;;;573202;246;23096;-81
2023/09/11 08:37:30;;;;;;;8.10;7.40;;;51.80;37.90;51.40;100460;;;;573325;246;23098;-82
2023/09/11 08:39:55;;;;;;;7.68;7.07;;;52.00;37.90;51.80;100456;;;;581391;246;24166;-83
2023/09/11 08:42:25;;;;;;;7.78;7.03;;;52.30;37.60;51.80;100453;;;;573082;246;23105;-79
2023/09/11 08:44:53;;;;;;;8.07;7.32;;;52.40;37.00;51.70;100455;;;;573727;246;23147;-83
2023/09/11 08:47:21;;;;;;;9.15;7.03;;;52.50;36.70;51.60;100458;;;;573678;246;23095;-79
2023/09/11 08:49:52;;;;;;;9.25;7.72;;;52.50;36.60;51.60;100458;;;;573091;246;23108;-79
2023/09/11 08:52:24;;;;;;;7.80;6.80;;;52.40;35.90;51.70;100459;;;;581628;246;23093;-81
2023/09/11 08:54:53;;;;;;;7.37;6.60;;;52.40;36.00;51.60;100460;;;;572874;245;23100;-79
2023/09/11 08:57:21;;;;;;;11.25;7.18;;;52.40;36.00;51.80;100457;;;;580314;246;24138;-79
2023/09/11 08:59:49;;;;;;;9.60;7.90;;;52.50;36.40;51.90;100454;;;;572557;244;23118;-84
2023/09/11 09:02:13;;;;;;;7.10;6.60;;;52.80;36.20;52.00;100454;;;;572459;246;23105;-80
2023/09/11 09:04:41;;;;;;;9.38;7.68;;;52.90;36.80;52.00;100459;;;;572621;246;23101;-80
2023/09/11 09:07:09;;;;;;;7.50;6.90;;;53.00;36.30;51.80;100454;;;;572839;246;23108;-80
2023/09/11 09:09:36;;;;;;;17.85;8.15;;;52.90;36.00;51.60;100454;;;;581232;246;23102;-80
2023/09/11 09:12:43;;;;;;;7.45;6.87;;;52.80;35.80;51.40;100453;;;;572520;246;23152;-82
2023/09/11 09:15:04;;;;;;;8.43;6.93;;;52.60;36.00;51.10;100452;;;;574709;246;23141;-79
2023/09/11 09:17:32;;;;;;;8.07;6.82;;;52.30;36.40;51.00;100454;;;;570173;251;23145;-79
2023/09/11 09:20:00;;;;;;;8.40;7.57;;;52.30;36.10;50.80;100452;;;;572443;246;23133;-80
2023/09/11 09:22:30;;;;;;;8.25;6.80;;;52.10;36.30;50.70;100446;;;;570473;248;23211;-81
2023/09/11 09:24:56;;;;;;;8.25;7.35;;;52.10;36.20;50.80;100443;;;;572146;246;23164;-80
2023/09/11 09:27:28;;;;;;;6.90;6.50;;;52.10;36.10;50.70;100444;;;;562449;251;23119;-83
2023/09/11 09:29:53;;;;;;;10.18;8.45;;;52.10;36.00;50.80;100449;;;;572182;246;23112;-80
2023/09/11 09:32:24;;;;;;;9.95;9.00;;;52.10;37.00;50.00;100444;;;;572448;246;23093;-79
2023/09/11 09:34:58;;;;;;;15.65;8.90;;;51.60;36.90;49.60;100441;;;;562194;251;23137;-82
2023/09/11 09:37:23;;;;;;;16.70;10.00;;;51.20;37.50;49.70;100439;;;;562175;251;23148;-79
2023/09/11 09:39:55;;;;;;;9.07;7.78;;;51.10;37.70;49.70;100426;;;;574923;245;23146;-82
2023/09/11 09:42:21;;;;;;;23.48;9.52;;;51.10;37.40;49.70;100433;;;;573635;246;23104;-78
2023/09/11 09:44:52;;;;;;;30.92;10.23;;;51.10;37.80;49.90;100425;;;;563744;250;23159;-79
2023/09/11 09:47:21;;;;;;;14.57;8.60;;;51.20;37.90;50.10;100429;;;;573454;246;23186;-79
2023/09/11 09:49:54;;;;;;;11.02;7.97;;;51.50;37.00;49.80;100430;;;;562780;251;23178;-78
2023/09/11 09:52:21;;;;;;;16.08;7.10;;;51.40;37.50;49.90;100419;;;;572886;246;23113;-78
2023/09/11 09:54:52;;;;;;;12.27;6.30;;;51.40;37.70;49.90;100425;;;;570759;250;23168;-81
2023/09/11 09:57:20;;;;;;;14.60;6.93;;;51.50;37.20;50.20;100415;;;;562612;250;23130;-78
2023/09/11 09:59:48;;;;;;;6.35;5.78;;;51.70;36.60;49.80;100418;;;;562107;250;23133;-79
2023/09/11 10:02:16;;;;;;;5.87;5.57;;;51.50;36.10;49.30;100411;;;;572593;246;23109;-79
2023/09/11 10:04:44;;;;;;;7.03;6.30;;;51.00;36.20;48.80;100417;;;;565432;250;35467;-81
2023/09/11 10:07:14;;;;;;;7.35;6.65;;;50.70;36.80;48.40;100414;;;;575603;245;23101;-79
2023/09/11 10:09:43;;;;;;;7.45;6.80;;;49.70;37.00;47.90;100412;;;;572681;246;23165;-78
2023/09/11 10:12:12;;;;;;;11.88;7.03;;;49.60;36.90;46.90;100410;;;;562574;251;23127;-77
2023/09/11 10:14:39;;;;;;;7.78;6.50;;;48.90;38.20;46.00;100408;;;;573089;246;23101;-78
2023/09/11 10:17:11;;;;;;;6.78;6.28;;;47.70;38.60;44.50;100407;;;;571104;251;23145;-77
2023/09/11 10:19:39;;;;;;;7.40;6.70;;;46.30;39.90;43.10;100409;;;;572576;246;23094;-79
2023/09/11 10:22:03;;;;;;;7.05;6.25;;;44.80;41.10;42.20;100401;;;;562864;251;23136;-77
2023/09/11 10:24:34;;;;;;;7.55;6.47;;;43.50;42.50;41.20;100401;;;;564790;251;23148;-78
2023/09/11 10:27:02;;;;;;;6.70;5.85;;;42.20;43.60;40.20;100404;;;;562328;251;23113;-76
2023/09/11 10:29:42;;;;;;;10.82;6.72;;;41.00;45.00;39.20;100399;;;;561686;251;23123;-76
2023/09/11 10:32:19;;;;;;;11.00;6.57;;;39.90;46.10;38.20;100397;;;;561165;251;23149;-76
2023/09/11 10:34:49;;;;;;;7.15;6.55;;;38.90;47.10;37.40;100400;;;;557870;251;35499;-77
2023/09/11 10:37:14;;;;;;;9.00;7.70;;;38.00;49.80;36.70;100389;;;;558006;251;35551;-81
2023/09/11 10:39:43;;;;;;;12.88;8.80;;;36.90;51.40;36.30;100391;;;;572731;246;23107;-77
2023/09/11 10:42:14;;;;;;;14.38;9.23;;;36.80;51.30;35.70;100395;;;;562713;251;23134;-75
2023/09/11 10:44:39;;;;;;;11.27;9.20;;;36.20;52.70;34.90;100393;;;;567505;249;23132;-76
2023/09/11 10:47:11;;;;;;;11.90;8.25;;;35.50;54.20;33.80;100389;;;;563192;251;24159;-78
2023/09/11 10:49:40;;;;;;;16.00;9.38;;;34.60;55.30;33.20;100390;;;;563127;251;23116;-76
2023/09/11 10:52:06;;;;;;;13.90;8.60;;;33.90;56.80;32.70;100382;;;;563394;250;24223;-82
2023/09/11 10:54:37;;;;;;;16.25;8.80;;;33.40;57.90;32.40;100385;;;;563613;250;23144;-76
2023/09/11 10:57:02;;;;;;;12.30;8.82;;;33.00;59.40;31.90;100388;;;;573659;246;23112;-77
2023/09/11 10:59:29;;;;;;;13.50;8.40;;;32.60;59.80;31.40;100387;;;;573376;246;23149;-76
2023/09/11 11:01:58;;;;;;;15.80;9.75;;;32.00;60.90;30.90;100385;;;;573031;246;23154;-78
2023/09/11 11:04:25;;;;;;;13.20;8.40;;;31.60;62.10;30.60;100385;;;;573147;246;23110;-74
2023/09/11 11:06:56;;;;;;;16.05;9.18;;;31.20;63.20;30.30;100375;;;;574089;246;23108;-76
2023/09/11 11:09:36;;;;;;;13.00;9.68;;;30.90;64.40;30.00;100372;;;;573028;246;23098;-76